Time;durP1;ratioP1;P1;durP2;ratioP2;P2;SDS_P1;SDS_P2;PMS_P1;PMS_P2;Temp;Humidity;BMP_temperature;BMP_pressure;BME280_temperature;BME280_humidity;BME280_pressure;Samples;Min_cycle;Max_cycle;Signal;HPM_P1;HPM_P2
2021/09/25 01:02:45;;;;;;;1.13;1.00;;;;;;;21.61;70.55;100517.84;5945968;23;20039;-96
2021/09/25 01:21:07;;;;;;;1.55;1.15;;;;;;;21.74;69.24;100502.94;5831264;23;20035;-96
2021/09/25 01:23:33;;;;;;;1.50;1.40;;;;;;;21.66;69.24;100500.25;5001489;28;20062;-96
2021/09/25 01:26:03;;;;;;;1.88;1.17;;;;;;;21.62;69.33;100496.28;5003216;28;20007;-95
2021/09/25 01:28:29;;;;;;;1.40;1.02;;;;;;;21.65;69.46;100503.13;5020888;28;20034;-90
2021/09/25 01:30:54;;;;;;;2.55;1.30;;;;;;;21.55;69.76;100500.66;5020472;28;20081;-92
2021/09/25 01:33:28;;;;;;;1.77;1.42;;;;;;;21.62;69.50;100490.94;5020768;28;20010;-93
2021/09/25 01:42:27;;;;;;;3.15;1.85;;;;;;;21.47;69.92;100495.38;5001365;28;20017;-96
2021/09/25 01:44:53;;;;;;;2.05;1.85;;;;;;;21.46;69.68;100497.19;5000306;28;20041;-90
2021/09/25 02:33:57;;;;;;;5.25;4.60;;;;;;;21.03;70.33;100451.25;5494629;23;20063;-96
2021/09/25 02:36:22;;;;;;;4.45;4.05;;;;;;;21.12;70.24;100450.22;5001875;28;20466;-96
2021/09/25 02:46:47;;;;;;;7.07;4.75;;;;;;;21.48;69.80;100444.41;5405549;23;20053;-96
2021/09/25 02:49:14;;;;;;;5.28;4.78;;;;;;;21.34;69.97;100448.63;4997112;28;20034;-96
2021/09/25 02:51:39;;;;;;;6.63;4.90;;;;;;;21.12;70.94;100454.72;4981840;28;20034;-95
2021/09/25 02:54:05;;;;;;;5.13;4.45;;;;;;;21.35;69.91;100452.16;4982253;28;20062;-96
2021/09/25 02:56:30;;;;;;;6.97;6.22;;;;;;;21.09;70.87;100449.72;4981461;28;20390;-96
2021/09/25 02:58:56;;;;;;;6.97;5.43;;;;;;;21.11;71.02;100453.91;4981503;28;20031;-96
2021/09/25 03:01:21;;;;;;;5.47;4.75;;;;;;;21.20;70.80;100454.69;4979940;28;20073;-96
2021/09/25 03:03:47;;;;;;;7.78;5.60;;;;;;;21.19;70.38;100445.84;4995751;28;20390;-96
2021/09/25 03:06:13;;;;;;;7.38;5.03;;;;;;;21.20;70.48;100444.84;4996875;28;20034;-96
2021/09/25 03:08:38;;;;;;;6.72;5.15;;;;;;;21.17;70.93;100441.72;4998249;28;20042;-96
2021/09/25 03:11:04;;;;;;;6.40;5.55;;;;;;;21.17;70.71;100434.53;4997691;28;20086;-96
2021/09/25 03:13:29;;;;;;;6.68;5.82;;;;;;;21.15;70.69;100438.38;4993042;28;20081;-96
2021/09/25 03:15:55;;;;;;;7.95;5.20;;;;;;;21.22;70.75;100439.34;4992845;28;20023;-96
2021/09/25 03:18:21;;;;;;;6.80;5.18;;;;;;;21.27;70.52;100437.00;4994326;28;20023;-96
2021/09/25 03:20:46;;;;;;;6.80;5.68;;;;;;;21.27;70.46;100434.31;5001916;28;20026;-96
2021/09/25 03:28:22;;;;;;;9.00;6.55;;;;;;;21.27;70.33;100428.13;5720686;23;20058;-96
2021/09/25 03:30:49;;;;;;;7.25;5.47;;;;;;;21.29;70.31;100428.81;4994248;28;20070;-96
2021/09/25 03:33:48;;;;;;;6.45;5.30;;;;;;;21.47;70.16;100433.94;4964117;28;20086;-96
2021/09/25 03:37:12;;;;;;;6.20;5.45;;;;;;;21.38;69.84;100417.06;5007868;28;20022;-96
2021/09/25 03:39:40;;;;;;;6.13;5.03;;;;;;;21.30;69.60;100417.94;5018503;28;20049;-96
2021/09/25 03:44:42;;;;;;;7.75;5.78;;;;;;;21.38;69.91;100433.91;5068838;23;20050;-96
2021/09/25 03:47:08;;;;;;;6.47;5.72;;;;;;;21.36;69.90;100435.09;4982476;28;20030;-96
2021/09/25 03:49:34;;;;;;;6.50;5.18;;;;;;;21.33;69.87;100425.59;5001251;28;20026;-96
2021/09/25 03:51:59;;;;;;;5.68;4.88;;;;;;;21.28;69.92;100429.81;5004752;28;20512;-95
2021/09/25 03:54:24;;;;;;;5.07;4.55;;;;;;;21.24;70.08;100426.63;5001456;28;20057;-96
2021/09/25 03:56:50;;;;;;;6.45;4.57;;;;;;;21.22;70.40;100425.97;5003038;28;20027;-96
2021/09/25 03:59:16;;;;;;;5.40;4.05;;;;;;;21.14;70.52;100418.84;5001361;28;20104;-96
2021/09/25 04:01:41;;;;;;;4.22;3.72;;;;;;;21.12;70.50;100426.19;5003350;28;20032;-96
2021/09/25 04:04:07;;;;;;;3.88;3.35;;;;;;;21.22;70.61;100434.00;5000335;28;20032;-96
2021/09/25 04:06:33;;;;;;;4.47;3.80;;;;;;;21.22;70.24;100438.50;5002457;28;20040;-96
2021/09/25 04:08:59;;;;;;;4.45;3.00;;;;;;;21.18;70.46;100430.00;5000094;28;20069;-95
2021/09/25 04:11:24;;;;;;;4.18;3.17;;;;;;;21.21;70.32;100424.34;5003309;28;20045;-96
2021/09/25 04:13:50;;;;;;;4.22;3.15;;;;;;;21.29;70.11;100437.66;5001788;28;20042;-96
2021/09/25 04:16:16;;;;;;;5.30;3.33;;;;;;;21.24;70.32;100441.84;5001679;28;20466;-96
2021/09/25 04:18:41;;;;;;;3.45;3.10;;;;;;;21.17;70.39;100425.69;4999922;28;20037;-96
2021/09/25 04:21:07;;;;;;;4.07;3.10;;;;;;;21.21;70.28;100440.34;5000778;28;20033;-96
2021/09/25 04:23:32;;;;;;;6.22;4.97;;;;;;;21.01;70.80;100429.25;5001623;28;20084;-96
2021/09/25 04:26:01;;;;;;;7.18;4.20;;;;;;;21.03;71.25;100429.06;5006921;28;20053;-96
2021/09/25 04:28:29;;;;;;;7.20;5.28;;;;;;;20.65;72.31;100426.16;5014683;28;20062;-96
2021/09/25 04:30:59;;;;;;;5.90;5.10;;;;;;;20.63;72.73;100409.47;5012747;28;20046;-96
2021/09/25 04:33:25;;;;;;;5.53;4.53;;;;;;;20.75;72.59;100421.47;5007444;28;20030;-96
2021/09/25 04:35:50;;;;;;;5.22;4.72;;;;;;;20.81;72.20;100420.78;5005830;28;20041;-96
2021/09/25 04:38:16;;;;;;;6.85;4.80;;;;;;;20.98;71.33;100421.56;5004319;28;20021;-96
2021/09/25 04:40:42;;;;;;;5.90;5.40;;;;;;;20.75;72.38;100411.63;5001833;28;20102;-96
2021/09/25 04:43:08;;;;;;;5.05;4.53;;;;;;;20.95;71.53;100411.22;5006514;28;20255;-96
2021/09/25 04:45:33;;;;;;;5.80;5.20;;;;;;;20.99;71.86;100412.53;5004930;28;20023;-96
2021/09/25 04:47:59;;;;;;;5.40;4.90;;;;;;;20.95;71.87;100404.06;5004052;28;20073;-96
2021/09/25 04:50:29;;;;;;;7.53;5.60;;;;;;;20.99;71.90;100408.06;5005530;28;20022;-96
2021/09/25 04:53:05;;;;;;;7.78;5.50;;;;;;;20.98;71.84;100401.03;5013831;28;20027;-96
2021/09/25 04:55:30;;;;;;;7.47;5.53;;;;;;;20.95;72.08;100406.75;5018827;28;20090;-96
2021/09/25 04:57:55;;;;;;;6.28;5.68;;;;;;;21.02;72.23;100412.22;5015064;28;20532;-96
2021/09/25 05:00:21;;;;;;;5.47;4.95;;;;;;;21.04;72.05;100414.72;4987376;28;20033;-96
2021/09/25 05:02:47;;;;;;;6.95;5.47;;;;;;;21.01;72.08;100415.91;4992088;28;20516;-96
2021/09/25 05:05:13;;;;;;;5.97;5.10;;;;;;;21.03;71.88;100413.03;4989401;28;20026;-96
2021/09/25 05:07:38;;;;;;;5.85;4.50;;;;;;;20.98;71.86;100406.38;4989244;28;20019;-96
2021/09/25 05:10:04;;;;;;;5.30;4.45;;;;;;;20.98;72.06;100406.38;4978913;28;20035;-96
2021/09/25 05:12:32;;;;;;;6.32;5.00;;;;;;;21.16;71.43;100410.66;4994526;28;20069;-96
2021/09/25 05:14:59;;;;;;;7.00;5.68;;;;;;;21.19;71.47;100419.16;4995073;28;20062;-96
2021/09/25 05:17:24;;;;;;;6.10;5.05;;;;;;;21.12;71.41;100401.34;4999139;28;20018;-96
2021/09/25 05:19:50;;;;;;;7.35;5.60;;;;;;;21.02;71.93;100403.38;5001483;28;20019;-96
2021/09/25 05:22:19;;;;;;;6.65;5.10;;;;;;;20.98;72.00;100393.03;4980667;28;20038;-96
2021/09/25 05:24:45;;;;;;;6.20;5.60;;;;;;;21.02;72.01;100403.38;5006482;28;20532;-96
2021/09/25 05:27:12;;;;;;;7.03;5.90;;;;;;;20.90;72.37;100385.06;5005488;28;20125;-96
2021/09/25 05:29:38;;;;;;;7.43;5.90;;;;;;;21.02;72.39;100401.53;5013118;28;20094;-96
2021/09/25 05:32:07;;;;;;;9.27;6.43;;;;;;;20.91;72.45;100384.06;4998679;28;20098;-96
2021/09/25 05:34:33;;;;;;;7.10;5.30;;;;;;;21.00;72.34;100393.69;5012847;28;20086;-96
2021/09/25 05:37:00;;;;;;;6.72;5.95;;;;;;;20.97;72.38;100388.72;5004399;28;20094;-96
2021/09/25 05:39:26;;;;;;;8.27;6.97;;;;;;;20.85;72.07;100379.41;5003440;28;20034;-96
2021/09/25 05:41:53;;;;;;;7.30;6.10;;;;;;;20.85;72.55;100374.06;5010798;28;20034;-96
2021/09/25 05:49:29;;;;;;;8.45;6.72;;;;;;;20.89;72.28;100391.41;5042210;23;20055;-96
2021/09/25 05:54:30;;;;;;;5.32;4.82;;;;;;;20.91;72.16;100397.41;5895851;23;20058;-96
2021/09/25 06:17:32;;;;;;;7.28;6.30;;;;;;;20.77;72.67;100403.44;5635741;23;20047;-96
2021/09/25 06:19:57;;;;;;;8.93;5.93;;;;;;;20.74;72.94;100395.78;4981448;28;20041;-94
2021/09/25 06:22:25;;;;;;;6.30;5.35;;;;;;;20.76;72.71;100397.28;5314133;23;20050;-96
2021/09/25 06:24:50;;;;;;;7.95;6.13;;;;;;;20.76;72.49;100397.28;5012800;28;20022;-96
2021/09/25 06:27:16;;;;;;;7.50;5.75;;;;;;;20.84;72.49;100407.09;5005949;28;20022;-96
2021/09/25 06:42:29;;;;;;;6.93;5.70;;;;;;;20.79;72.43;100414.78;5663183;23;1455894;-96
2021/09/25 06:44:55;;;;;;;8.35;6.95;;;;;;;20.63;73.45;100396.97;4965865;28;20062;-96
2021/09/25 06:47:21;;;;;;;9.20;6.60;;;;;;;20.67;73.31;100397.47;4992626;28;20022;-96
2021/09/25 06:57:56;;;;;;;6.07;5.45;;;;;;;20.94;72.87;100414.91;4999611;28;20051;-96
2021/09/25 07:00:21;;;;;;;6.47;5.22;;;;;;;20.95;72.84;100411.22;4995474;28;20035;-96
2021/09/25 07:02:46;;;;;;;5.65;4.72;;;;;;;21.00;72.61;100420.38;4994358;28;20038;-96
2021/09/25 07:05:12;;;;;;;6.22;5.10;;;;;;;21.03;72.60;100419.22;4997875;28;20046;-96
2021/09/25 07:10:08;;;;;;;4.50;3.90;;;;;;;20.79;72.77;100406.78;5015450;28;20043;-96
2021/09/25 07:12:33;;;;;;;4.55;3.90;;;;;;;20.87;72.41;100412.06;5007368;28;20026;-96
2021/09/25 07:14:59;;;;;;;4.70;3.42;;;;;;;20.90;72.40;100413.59;5005398;28;20041;-96
2021/09/25 07:17:24;;;;;;;4.47;3.40;;;;;;;20.87;72.61;100414.75;5017539;28;20041;-96
2021/09/25 07:19:50;;;;;;;4.93;3.58;;;;;;;20.86;72.33;100407.75;5022421;28;20034;-96
2021/09/25 07:22:16;;;;;;;3.67;3.30;;;;;;;20.86;72.31;100406.94;5021363;28;20106;-96
2021/09/25 07:24:41;;;;;;;3.90;3.38;;;;;;;20.89;73.32;100417.25;5023584;28;20510;-95
2021/09/25 07:27:07;;;;;;;3.38;2.83;;;;;;;20.89;72.91;100418.09;5028816;28;20029;-96
2021/09/25 07:29:33;;;;;;;3.90;2.60;;;;;;;20.93;73.02;100427.44;5024497;28;20057;-96
2021/09/25 07:31:58;;;;;;;3.65;2.80;;;;;;;21.05;73.08;100421.69;5025364;28;20053;-96
2021/09/25 07:34:24;;;;;;;2.80;2.35;;;;;;;20.98;72.86;100421.56;5023736;28;20026;-96
2021/09/25 07:36:49;;;;;;;3.25;2.58;;;;;;;20.86;73.36;100418.44;5022068;28;20026;-96
2021/09/25 07:39:15;;;;;;;2.67;2.38;;;;;;;20.88;73.53;100415.59;5022214;28;20026;-96
2021/09/25 07:41:40;;;;;;;3.33;3.00;;;;;;;20.92;73.23;100412.41;5020496;28;20045;-96
2021/09/25 07:44:06;;;;;;;3.58;2.50;;;;;;;20.95;73.01;100422.75;5020249;28;20038;-96
2021/09/25 07:46:32;;;;;;;2.40;2.20;;;;;;;21.04;72.19;100430.72;5022321;28;20018;-96
2021/09/25 07:49:01;;;;;;;4.57;2.10;;;;;;;20.98;71.65;100416.22;5028100;28;20036;-96
2021/09/25 07:51:28;;;;;;;2.63;2.42;;;;;;;20.97;72.39;100420.75;5029736;28;20031;-96
2021/09/25 07:53:57;;;;;;;3.63;2.15;;;;;;;21.03;72.26;100408.56;5028547;28;20121;-96
2021/09/25 07:56:23;;;;;;;3.15;2.33;;;;;;;21.06;71.78;100418.88;5014287;28;20049;-96
2021/09/25 07:58:48;;;;;;;3.22;2.47;;;;;;;21.07;71.59;100401.88;5021499;28;20029;-96
2021/09/25 08:01:14;;;;;;;2.00;1.75;;;;;;;21.23;72.10;100419.66;5007464;28;20086;-96
2021/09/25 08:03:40;;;;;;;1.83;1.58;;;;;;;21.42;71.29;100418.38;5018462;28;20029;-96
2021/09/25 08:06:06;;;;;;;2.30;1.88;;;;;;;21.63;69.99;100423.16;5026795;28;20086;-96
2021/09/25 08:08:31;;;;;;;2.00;1.80;;;;;;;21.71;69.89;100419.59;5007157;28;20118;-96
2021/09/25 08:10:56;;;;;;;3.17;2.22;;;;;;;21.80;69.16;100423.88;5021853;28;20053;-96
2021/09/25 08:13:22;;;;;;;2.65;1.80;;;;;;;21.86;69.41;100430.34;5021087;28;20056;-96
2021/09/25 08:15:48;;;;;;;1.63;1.52;;;;;;;21.91;69.17;100433.31;5018398;28;20036;-96
2021/09/25 08:18:14;;;;;;;2.30;1.70;;;;;;;22.03;69.20;100441.78;5029612;28;20045;-96
2021/09/25 08:20:39;;;;;;;1.90;1.60;;;;;;;22.06;68.75;100444.91;5020825;28;20384;-96
2021/09/25 08:23:05;;;;;;;1.45;1.35;;;;;;;22.10;68.19;100448.06;5010005;28;20037;-96
2021/09/25 08:25:30;;;;;;;2.13;1.50;;;;;;;22.10;67.94;100446.22;5012974;28;20037;-96
2021/09/25 08:28:07;;;;;;;1.48;1.38;;;;;;;22.27;67.89;100449.63;5033375;28;20060;-96
2021/09/25 08:33:20;;;;;;;1.88;1.77;;;;;;;22.26;67.03;100437.28;5077300;23;20038;-96
2021/09/25 08:35:45;;;;;;;2.38;1.50;;;;;;;22.32;65.95;100435.72;4988660;28;20058;-96
2021/09/25 08:38:11;;;;;;;1.35;1.23;;;;;;;22.48;67.06;100442.78;4995718;28;20022;-96
2021/09/25 08:40:36;;;;;;;3.42;1.23;;;;;;;22.55;65.56;100436.53;5005935;28;20512;-96
2021/09/25 08:43:03;;;;;;;1.20;1.10;;;;;;;22.64;66.34;100439.94;5006492;28;20026;-96
2021/09/25 08:45:29;;;;;;;1.30;1.20;;;;;;;22.80;65.80;100438.94;5002980;28;20023;-96
2021/09/25 08:47:56;;;;;;;1.50;1.40;;;;;;;22.82;65.05;100447.63;4996429;28;20089;-95
2021/09/25 08:50:22;;;;;;;1.55;1.40;;;;;;;22.90;65.21;100439.50;5001134;28;20019;-96
2021/09/25 08:52:48;;;;;;;3.05;1.08;;;;;;;23.02;64.96;100442.56;4993507;28;20030;-94
2021/09/25 08:55:14;;;;;;;1.50;1.40;;;;;;;23.14;64.18;100434.91;4993663;28;20365;-95
2021/09/25 08:57:39;;;;;;;1.60;1.30;;;;;;;23.29;63.85;100446.44;4993205;28;20026;-96
2021/09/25 09:00:23;;;;;;;2.42;1.10;;;;;;;23.60;63.15;100437.34;4991793;28;20108;-95
2021/09/25 09:02:49;;;;;;;2.95;1.40;;;;;;;23.59;62.55;100441.03;4993357;28;20033;-95
2021/09/25 09:05:29;;;;;;;1.15;1.05;;;;;;;23.73;61.85;100432.09;4994013;28;20022;-96
2021/09/25 09:07:59;;;;;;;4.18;1.50;;;;;;;23.83;61.20;100437.19;4992410;28;20551;-95
2021/09/25 09:10:31;;;;;;;2.75;1.90;;;;;;;23.83;62.07;100431.81;4991801;28;20026;-95
2021/09/25 09:12:57;;;;;;;5.95;1.95;;;;;;;23.92;61.69;100427.19;4991567;28;20066;-95
2021/09/25 09:15:32;;;;;;;2.80;2.15;;;;;;;24.03;60.53;100425.84;4992213;28;20045;-95
2021/09/25 09:18:00;;;;;;;3.78;2.50;;;;;;;24.00;59.90;100434.28;4992225;28;20022;-94
2021/09/25 09:20:30;;;;;;;3.28;2.67;;;;;;;23.91;60.40;100436.25;4992070;28;20485;-95
2021/09/25 09:23:19;;;;;;;3.65;2.28;;;;;;;24.14;60.14;100428.00;4992100;28;20041;-95
2021/09/25 09:25:44;;;;;;;2.78;2.25;;;;;;;24.20;60.50;100429.09;4992019;28;20141;-96
2021/09/25 09:28:20;;;;;;;3.85;2.80;;;;;;;24.21;60.06;100433.41;4992578;28;20096;-96
2021/09/25 09:30:48;;;;;;;2.03;1.83;;;;;;;24.44;60.29;100415.25;4987533;28;20031;-96
2021/09/25 09:33:50;;;;;;;2.55;1.85;;;;;;;24.80;59.51;100424.19;4984405;28;20027;-96
2021/09/25 09:36:24;;;;;;;3.13;2.10;;;;;;;24.98;59.27;100431.72;4976712;28;20050;-96
2021/09/25 09:38:55;;;;;;;3.25;1.95;;;;;;;25.04;58.68;100422.88;4984187;28;20026;-96
2021/09/25 09:41:25;;;;;;;1.75;1.48;;;;;;;25.12;58.73;100425.44;4992056;28;20121;-96
2021/09/25 09:43:53;;;;;;;2.45;1.33;;;;;;;25.12;57.82;100425.44;4993426;28;20026;-96
2021/09/25 09:46:27;;;;;;;2.92;1.42;;;;;;;25.06;57.79;100423.50;4992370;28;20416;-94
2021/09/25 09:48:54;;;;;;;2.17;1.40;;;;;;;24.90;58.28;100420.16;4978156;28;20508;-96
2021/09/25 09:51:37;;;;;;;1.92;1.48;;;;;;;25.11;57.62;100426.44;4985870;28;20030;-95
2021/09/25 09:54:08;;;;;;;2.30;1.30;;;;;;;24.96;58.54;100423.03;4989785;28;20046;-94
2021/09/25 09:56:39;;;;;;;1.48;1.13;;;;;;;24.99;58.32;100428.03;4979656;28;20057;-95
2021/09/25 09:59:05;;;;;;;;;;;;;;;25.23;57.91;100435.63;4983001;28;20045;-95
2021/09/25 10:01:31;;;;;;;1.52;1.20;;;;;;;25.18;57.56;100430.00;4993099;28;20560;-95
2021/09/25 10:03:59;;;;;;;0.93;0.80;;;;;;;24.98;58.20;100427.22;4990336;28;20393;-96
2021/09/25 10:06:24;;;;;;;2.30;1.30;;;;;;;24.78;59.02;100432.44;4989631;28;20026;-96
2021/09/25 10:08:50;;;;;;;1.30;1.08;;;;;;;24.96;58.25;100420.34;4991667;28;20038;-96
2021/09/25 10:11:17;;;;;;;1.45;1.20;;;;;;;24.97;57.77;100413.97;4993295;28;20104;-95
2021/09/25 10:13:42;;;;;;;1.45;0.93;;;;;;;25.14;57.38;100415.31;4997328;28;20476;-96
2021/09/25 10:16:09;;;;;;;1.90;1.20;;;;;;;25.30;57.27;100420.34;4996805;28;20026;-96
2021/09/25 10:18:35;;;;;;;0.98;0.82;;;;;;;25.30;57.36;100419.53;4996966;28;20074;-96
2021/09/25 10:21:04;;;;;;;1.70;0.90;;;;;;;25.12;57.02;100425.44;4995853;28;20031;-96
2021/09/25 10:23:33;;;;;;;2.22;1.00;;;;;;;25.14;56.49;100415.31;4996361;28;20101;-96
2021/09/25 10:25:59;;;;;;;1.10;1.00;;;;;;;25.33;57.33;100408.38;4995924;28;20109;-96
2021/09/25 10:28:27;;;;;;;1.67;1.13;;;;;;;25.47;57.25;100410.06;4990476;28;20019;-96
2021/09/25 10:30:53;;;;;;;1.02;0.80;;;;;;;25.66;56.44;100400.41;4988073;28;20038;-95
2021/09/25 10:33:18;;;;;;;0.85;0.70;;;;;;;25.78;55.40;100392.56;4995819;28;20027;-96
2021/09/25 10:35:44;;;;;;;2.05;0.70;;;;;;;25.96;55.24;100389.31;4994241;28;20027;-95
2021/09/25 10:38:10;;;;;;;0.80;0.45;;;;;;;26.06;54.85;100384.34;4996507;28;20069;-96
2021/09/25 10:40:40;;;;;;;1.15;0.75;;;;;;;26.04;53.96;100381.03;4995886;28;20018;-96
2021/09/25 10:43:20;;;;;;;0.50;0.38;;;;;;;26.11;53.85;100387.25;4996131;28;20038;-96
2021/09/25 10:45:51;;;;;;;2.58;0.60;;;;;;;26.06;53.03;100381.66;4996038;28;20058;-96
2021/09/25 10:48:25;;;;;;;0.68;0.40;;;;;;;26.05;54.06;100387.25;4996081;28;20034;-96
2021/09/25 10:51:06;;;;;;;0.60;0.40;;;;;;;25.96;53.85;100391.19;4995641;28;20039;-96
2021/09/25 10:53:34;;;;;;;0.40;0.30;;;;;;;25.82;53.16;100387.63;4995868;28;20077;-96
2021/09/25 10:56:04;;;;;;;0.28;0.20;;;;;;;25.75;53.44;100387.63;4996387;28;20025;-96
2021/09/25 10:58:32;;;;;;;1.95;0.73;;;;;;;25.63;53.71;100386.53;4996425;28;20033;-96
2021/09/25 11:01:07;;;;;;;0.80;0.25;;;;;;;25.64;53.92;100390.91;4996291;28;20022;-96
2021/09/25 11:03:39;;;;;;;1.60;0.60;;;;;;;25.69;53.50;100391.09;4995549;28;20428;-96
2021/09/25 11:06:05;;;;;;;;;;;;;;;25.76;53.04;100391.13;4995920;28;20497;-96
2021/09/25 11:08:32;;;;;;;0.45;0.20;;;;;;;25.78;53.20;100389.88;4995586;28;19918;-96
2021/09/25 11:11:12;;;;;;;0.60;0.32;;;;;;;25.92;53.16;100391.56;4996127;28;20030;-96
2021/09/25 11:14:26;;;;;;;1.42;0.30;;;;;;;25.74;53.53;100391.31;4996494;28;20026;-96
2021/09/25 11:16:56;;;;;;;1.70;0.30;;;;;;;25.69;53.56;100388.41;4992782;28;20060;-96
2021/09/25 11:19:22;;;;;;;0.55;0.40;;;;;;;25.61;54.09;100383.22;4997135;28;20030;-96
2021/09/25 11:22:08;;;;;;;1.20;0.60;;;;;;;25.58;54.23;100387.16;4997339;28;20038;-96
2021/09/25 11:24:46;;;;;;;1.98;0.45;;;;;;;25.36;55.14;100394.53;4996728;28;20034;-96
2021/09/25 11:27:28;;;;;;;0.50;0.30;;;;;;;25.47;54.96;100393.94;4997614;28;20026;-96
2021/09/25 11:29:56;;;;;;;1.17;0.65;;;;;;;25.16;55.90;100394.44;4996665;28;20062;-95
2021/09/25 11:32:33;;;;;;;1.88;0.40;;;;;;;25.09;55.90;100396.25;4997441;28;20027;-96
2021/09/25 11:35:01;;;;;;;0.85;0.40;;;;;;;25.14;55.51;100391.13;4997100;28;20088;-96
2021/09/25 11:37:28;;;;;;;0.50;0.30;;;;;;;25.13;55.54;100389.44;4997604;28;20022;-96
2021/09/25 11:39:55;;;;;;;1.25;0.50;;;;;;;24.94;56.10;100383.81;4996802;28;20073;-96
2021/09/25 11:42:25;;;;;;;0.68;0.20;;;;;;;25.02;56.73;100390.00;4997707;28;20026;-96
2021/09/25 11:44:52;;;;;;;1.08;0.35;;;;;;;24.94;56.04;100381.13;4996882;28;20037;-96
2021/09/25 11:47:33;;;;;;;0.40;0.30;;;;;;;24.98;56.86;100372.66;4996421;28;20026;-96
2021/09/25 11:50:09;;;;;;;1.38;0.50;;;;;;;25.04;56.51;100372.69;4995983;28;20057;-96
2021/09/25 11:52:35;;;;;;;0.63;0.20;;;;;;;25.11;56.17;100368.16;4996671;28;20029;-96
2021/09/25 11:55:00;;;;;;;1.00;0.35;;;;;;;25.08;56.85;100365.88;4996277;28;20031;-96
2021/09/25 11:57:25;;;;;;;0.45;0.30;;;;;;;25.16;56.60;100362.19;4996200;28;20023;-96
2021/09/25 11:59:53;;;;;;;2.55;0.40;;;;;;;25.23;55.61;100346.94;4996794;28;20042;-96
2021/09/25 12:02:41;;;;;;;0.80;0.60;;;;;;;25.30;55.95;100342.44;4996328;28;20555;-96
2021/09/25 12:05:09;;;;;;;2.13;0.43;;;;;;;25.27;55.45;100340.13;4996119;28;20374;-96
2021/09/25 12:07:45;;;;;;;3.65;0.47;;;;;;;25.25;56.29;100334.13;5008160;28;20085;-96
2021/09/25 12:10:19;;;;;;;2.47;0.60;;;;;;;25.26;55.77;100332.28;5009797;28;20022;-96
2021/09/25 12:12:45;;;;;;;1.42;0.68;;;;;;;25.36;55.34;100326.53;5005102;28;20029;-96
2021/09/25 12:15:11;;;;;;;1.35;0.40;;;;;;;25.43;55.41;100328.19;5015945;28;20026;-96
2021/09/25 12:17:37;;;;;;;1.35;0.40;;;;;;;25.43;55.12;100327.34;5017074;28;20098;-96
2021/09/25 12:20:20;;;;;;;0.82;0.40;;;;;;;25.45;56.30;100326.13;5017387;28;20022;-96
2021/09/25 12:22:46;;;;;;;0.70;0.25;;;;;;;25.51;55.24;100327.16;5016850;28;20007;-96
2021/09/25 12:25:13;;;;;;;1.83;0.50;;;;;;;25.58;55.41;100325.31;5016239;28;20060;-96
2021/09/25 12:27:42;;;;;;;1.38;0.40;;;;;;;25.68;55.22;100323.06;5016645;28;20030;-96
2021/09/25 12:30:11;;;;;;;0.35;0.10;;;;;;;25.81;55.19;100316.03;5019344;28;20030;-96
2021/09/25 12:32:39;;;;;;;0.80;0.30;;;;;;;25.90;55.12;100317.47;5018752;28;20034;-96
2021/09/25 12:35:17;;;;;;;3.42;0.60;;;;;;;26.10;53.98;100329.06;5018062;28;20034;-96
2021/09/25 12:37:50;;;;;;;0.30;0.30;;;;;;;26.26;53.64;100325.16;5019432;28;20061;-96
2021/09/25 12:40:18;;;;;;;0.68;0.40;;;;;;;25.99;54.14;100318.97;5019657;28;20023;-95
2021/09/25 12:42:44;;;;;;;1.60;0.63;;;;;;;26.07;53.27;100318.75;5019519;28;20019;-95
2021/09/25 12:45:11;;;;;;;1.15;0.30;;;;;;;26.30;53.34;100321.00;5019155;28;20018;-96
2021/09/25 12:47:37;;;;;;;1.13;0.40;;;;;;;26.06;53.46;100316.25;5018584;28;20010;-96
2021/09/25 12:50:19;;;;;;;1.10;0.50;;;;;;;26.05;54.23;100304.69;5018879;28;20022;-96
2021/09/25 12:52:45;;;;;;;1.38;0.30;;;;;;;26.06;54.13;100308.19;5018761;28;20015;-96
2021/09/25 12:55:12;;;;;;;1.75;0.32;;;;;;;25.97;53.62;100312.97;5018771;28;20064;-96
2021/09/25 12:57:37;;;;;;;1.08;0.98;;;;;;;25.91;53.90;100309.25;5018389;28;20090;-96
2021/09/25 13:00:10;;;;;;;0.88;0.30;;;;;;;26.01;53.43;100310.69;5019113;28;20014;-96
2021/09/25 13:02:36;;;;;;;1.15;0.28;;;;;;;25.84;53.87;100307.56;5017866;28;20034;-96
2021/09/25 13:05:05;;;;;;;1.60;0.40;;;;;;;25.81;53.31;100307.94;5014750;28;20061;-96
2021/09/25 13:07:33;;;;;;;1.95;0.50;;;;;;;25.90;53.80;100302.19;5013964;28;20027;-95
2021/09/25 13:10:01;;;;;;;0.82;0.52;;;;;;;25.88;53.30;100303.41;5014697;28;20053;-96
2021/09/25 13:12:30;;;;;;;1.00;0.30;;;;;;;25.96;53.50;100305.91;5014109;28;20288;-96
2021/09/25 13:15:00;;;;;;;0.85;0.38;;;;;;;25.70;53.88;100304.84;5013994;28;20030;-96
2021/09/25 13:17:26;;;;;;;1.58;0.30;;;;;;;25.78;53.42;100305.69;4996515;28;20018;-96
2021/09/25 13:19:51;;;;;;;1.40;0.43;;;;;;;25.80;53.77;100306.31;4995286;28;20031;-96
2021/09/25 13:22:17;;;;;;;0.85;0.20;;;;;;;25.83;53.83;100301.34;4995556;28;20022;-96
2021/09/25 13:24:43;;;;;;;1.27;0.32;;;;;;;25.72;54.86;100289.34;4996496;28;20062;-96
2021/09/25 13:27:10;;;;;;;1.27;0.40;;;;;;;25.78;55.09;100298.44;4995211;28;20033;-96
2021/09/25 13:29:35;;;;;;;0.60;0.25;;;;;;;25.88;55.02;100304.22;4995109;28;20029;-96
2021/09/25 13:32:01;;;;;;;1.95;0.40;;;;;;;25.87;54.35;100296.38;4994898;28;20027;-96
2021/09/25 13:34:27;;;;;;;0.98;0.43;;;;;;;25.82;55.07;100285.41;4994786;28;20026;-96
2021/09/25 13:36:52;;;;;;;1.10;0.50;;;;;;;25.77;54.80;100285.19;4995109;28;20244;-96
2021/09/25 13:39:18;;;;;;;0.98;0.35;;;;;;;25.76;54.80;100283.56;4994902;28;20465;-96
2021/09/25 13:41:44;;;;;;;1.80;0.60;;;;;;;25.78;55.27;100286.88;4995893;28;20082;-96
2021/09/25 13:44:09;;;;;;;0.60;0.35;;;;;;;25.74;55.35;100281.06;4994272;28;20087;-96
2021/09/25 13:46:35;;;;;;;0.63;0.30;;;;;;;25.73;54.49;100279.41;4994156;28;20472;-96
2021/09/25 13:49:00;;;;;;;1.42;0.52;;;;;;;25.82;54.31;100280.03;4994906;28;20273;-96
2021/09/25 13:51:26;;;;;;;1.20;0.30;;;;;;;25.81;54.26;100273.00;4994936;28;20472;-96
2021/09/25 13:53:51;;;;;;;1.67;0.40;;;;;;;25.69;54.22;100281.69;4994323;28;20031;-96
2021/09/25 13:56:17;;;;;;;1.95;0.95;;;;;;;25.48;54.45;100265.75;4994406;28;20042;-96
2021/09/25 13:58:42;;;;;;;1.77;0.50;;;;;;;25.55;54.88;100271.94;4994462;28;20035;-96
2021/09/25 14:01:07;;;;;;;1.80;0.50;;;;;;;25.52;54.65;100277.75;4994878;28;20177;-96
2021/09/25 14:03:34;;;;;;;0.95;0.30;;;;;;;25.44;54.97;100259.97;4994608;28;20022;-96
2021/09/25 14:06:00;;;;;;;0.63;0.32;;;;;;;25.38;55.07;100259.97;4994555;28;20424;-96
2021/09/25 14:08:25;;;;;;;0.77;0.40;;;;;;;25.43;55.14;100252.09;4995348;28;20030;-96
2021/09/25 14:10:50;;;;;;;2.95;0.70;;;;;;;25.34;55.23;100254.16;4994382;28;20026;-96
2021/09/25 14:13:16;;;;;;;3.85;0.70;;;;;;;25.28;55.71;100246.94;4994095;28;20053;-96
2021/09/25 14:15:41;;;;;;;1.17;0.45;;;;;;;25.29;56.34;100249.38;4994251;28;20509;-96
2021/09/25 14:18:09;;;;;;;0.75;0.60;;;;;;;25.09;57.38;100245.81;4994404;28;20118;-96
2021/09/25 14:20:40;;;;;;;1.25;0.43;;;;;;;25.24;56.79;100246.50;4994514;28;20097;-96
2021/09/25 14:23:06;;;;;;;0.95;0.38;;;;;;;25.26;57.07;100241.75;4994499;28;20122;-96
2021/09/25 14:25:31;;;;;;;0.75;0.40;;;;;;;25.28;57.93;100247.75;4993884;28;20054;-96
2021/09/25 14:27:57;;;;;;;0.65;0.43;;;;;;;25.37;57.68;100243.00;4994123;28;20062;-96
2021/09/25 14:30:22;;;;;;;0.68;0.50;;;;;;;25.42;56.14;100242.41;4993915;28;20117;-96
2021/09/25 14:32:47;;;;;;;0.85;0.55;;;;;;;25.46;55.98;100224.81;4993891;28;20034;-96
2021/09/25 14:35:13;;;;;;;1.65;0.60;;;;;;;25.67;55.73;100231.84;4994034;28;20113;-96
2021/09/25 14:37:38;;;;;;;2.45;0.70;;;;;;;25.73;55.10;100229.16;4993642;28;20053;-96
2021/09/25 14:40:04;;;;;;;0.93;0.50;;;;;;;25.78;55.13;100222.31;4993998;28;20496;-96
2021/09/25 14:42:30;;;;;;;1.40;0.73;;;;;;;25.74;55.10;100211.16;4994082;28;20022;-96
2021/09/25 14:44:55;;;;;;;1.77;1.00;;;;;;;25.89;54.35;100209.06;4995047;28;20046;-96
2021/09/25 14:47:20;;;;;;;1.27;0.40;;;;;;;25.87;54.08;100200.38;4993779;28;20026;-96
2021/09/25 14:49:46;;;;;;;2.28;0.52;;;;;;;25.84;54.19;100205.34;4993821;28;20042;-96
2021/09/25 14:52:11;;;;;;;1.95;0.57;;;;;;;25.78;54.45;100211.56;4994098;28;20037;-96